sensor_id;sensor_type;location;lat;lon;timestamp;P1;durP1;ratioP1;P2;durP2;ratioP2
49101;SDS011;34913;47.520;19.186;2023-02-22T00:00:20;13.82;;;5.85;;
49101;SDS011;34913;47.520;19.186;2023-02-22T00:02:51;36.75;;;12.73;;
49101;SDS011;34913;47.520;19.186;2023-02-22T00:05:23;33.50;;;11.88;;
49101;SDS011;34913;47.520;19.186;2023-02-22T00:07:51;13.40;;;6.25;;
49101;SDS011;34913;47.520;19.186;2023-02-22T00:10:17;11.48;;;5.88;;
49101;SDS011;34913;47.520;19.186;2023-02-22T00:12:46;10.27;;;5.53;;
49101;SDS011;34913;47.520;19.186;2023-02-22T00:15:15;8.43;;;4.80;;
49101;SDS011;34913;47.520;19.186;2023-02-22T00:17:44;11.43;;;5.68;;
49101;SDS011;34913;47.520;19.186;2023-02-22T00:20:11;18.73;;;7.93;;
49101;SDS011;34913;47.520;19.186;2023-02-22T00:22:44;15.40;;;7.10;;
49101;SDS011;34913;47.520;19.186;2023-02-22T00:25:15;10.50;;;5.78;;
49101;SDS011;34913;47.520;19.186;2023-02-22T00:27:46;12.07;;;5.88;;
49101;SDS011;34913;47.520;19.186;2023-02-22T00:30:14;12.25;;;5.93;;
49101;SDS011;34913;47.520;19.186;2023-02-22T00:32:43;16.27;;;7.13;;
49101;SDS011;34913;47.520;19.186;2023-02-22T00:35:10;9.85;;;5.65;;
49101;SDS011;34913;47.520;19.186;2023-02-22T00:37:37;24.20;;;9.90;;
49101;SDS011;34913;47.520;19.186;2023-02-22T00:40:06;23.38;;;9.52;;
49101;SDS011;34913;47.520;19.186;2023-02-22T00:42:33;25.67;;;10.52;;
49101;SDS011;34913;47.520;19.186;2023-02-22T00:44:58;34.40;;;14.95;;
49101;SDS011;34913;47.520;19.186;2023-02-22T00:47:23;25.92;;;10.23;;
49101;SDS011;34913;47.520;19.186;2023-02-22T00:49:50;14.52;;;6.60;;
49101;SDS011;34913;47.520;19.186;2023-02-22T00:52:15;17.15;;;8.18;;
49101;SDS011;34913;47.520;19.186;2023-02-22T00:54:41;16.27;;;7.93;;
49101;SDS011;34913;47.520;19.186;2023-02-22T00:57:06;20.83;;;9.23;;
49101;SDS011;34913;47.520;19.186;2023-02-22T00:59:32;8.35;;;5.13;;
49101;SDS011;34913;47.520;19.186;2023-02-22T01:01:57;9.32;;;4.65;;
49101;SDS011;34913;47.520;19.186;2023-02-22T01:04:23;8.10;;;4.50;;
49101;SDS011;34913;47.520;19.186;2023-02-22T01:06:48;8.30;;;4.57;;
49101;SDS011;34913;47.520;19.186;2023-02-22T01:09:13;10.55;;;5.50;;
49101;SDS011;34913;47.520;19.186;2023-02-22T01:11:39;7.93;;;4.25;;
49101;SDS011;34913;47.520;19.186;2023-02-22T01:14:05;5.93;;;4.10;;
49101;SDS011;34913;47.520;19.186;2023-02-22T01:16:33;5.57;;;3.83;;
49101;SDS011;34913;47.520;19.186;2023-02-22T01:18:59;8.10;;;4.30;;
49101;SDS011;34913;47.520;19.186;2023-02-22T01:21:25;5.47;;;3.50;;
49101;SDS011;34913;47.520;19.186;2023-02-22T01:23:51;5.00;;;3.58;;
49101;SDS011;34913;47.520;19.186;2023-02-22T01:26:16;8.27;;;4.40;;
49101;SDS011;34913;47.520;19.186;2023-02-22T01:28:42;6.57;;;4.40;;
49101;SDS011;34913;47.520;19.186;2023-02-22T01:31:07;7.28;;;4.40;;
49101;SDS011;34913;47.520;19.186;2023-02-22T01:33:34;5.53;;;4.07;;
49101;SDS011;34913;47.520;19.186;2023-02-22T01:35:59;7.68;;;4.55;;
49101;SDS011;34913;47.520;19.186;2023-02-22T01:38:24;12.98;;;7.18;;
49101;SDS011;34913;47.520;19.186;2023-02-22T01:40:50;19.67;;;9.40;;
49101;SDS011;34913;47.520;19.186;2023-02-22T01:43:20;18.02;;;9.23;;
49101;SDS011;34913;47.520;19.186;2023-02-22T01:45:54;13.05;;;6.60;;
49101;SDS011;34913;47.520;19.186;2023-02-22T01:48:39;20.70;;;10.43;;
49101;SDS011;34913;47.520;19.186;2023-02-22T01:51:12;14.63;;;7.60;;
49101;SDS011;34913;47.520;19.186;2023-02-22T01:53:46;12.30;;;6.22;;
49101;SDS011;34913;47.520;19.186;2023-02-22T01:56:16;7.35;;;4.50;;
49101;SDS011;34913;47.520;19.186;2023-02-22T01:58:44;5.75;;;4.40;;
49101;SDS011;34913;47.520;19.186;2023-02-22T02:01:13;7.78;;;4.07;;
49101;SDS011;34913;47.520;19.186;2023-02-22T02:03:39;7.32;;;4.40;;
49101;SDS011;34913;47.520;19.186;2023-02-22T02:06:08;7.07;;;4.25;;
49101;SDS011;34913;47.520;19.186;2023-02-22T02:08:46;5.65;;;4.10;;
49101;SDS011;34913;47.520;19.186;2023-02-22T02:11:23;6.57;;;4.57;;
49101;SDS011;34913;47.520;19.186;2023-02-22T02:13:54;8.15;;;4.10;;
49101;SDS011;34913;47.520;19.186;2023-02-22T02:16:25;5.90;;;4.23;;
49101;SDS011;34913;47.520;19.186;2023-02-22T02:18:59;5.78;;;3.72;;
49101;SDS011;34913;47.520;19.186;2023-02-22T02:21:38;8.10;;;4.55;;
49101;SDS011;34913;47.520;19.186;2023-02-22T02:27:10;6.00;;;4.10;;
49101;SDS011;34913;47.520;19.186;2023-02-22T02:29:44;7.03;;;4.40;;
49101;SDS011;34913;47.520;19.186;2023-02-22T02:32:30;6.68;;;4.57;;
49101;SDS011;34913;47.520;19.186;2023-02-22T02:34:59;8.75;;;4.88;;
49101;SDS011;34913;47.520;19.186;2023-02-22T02:37:35;7.18;;;4.78;;
49101;SDS011;34913;47.520;19.186;2023-02-22T02:40:08;6.55;;;4.65;;
49101;SDS011;34913;47.520;19.186;2023-02-22T02:42:43;7.75;;;5.25;;
49101;SDS011;34913;47.520;19.186;2023-02-22T02:45:37;7.80;;;4.90;;
49101;SDS011;34913;47.520;19.186;2023-02-22T02:48:08;8.65;;;5.25;;
49101;SDS011;34913;47.520;19.186;2023-02-22T02:50:38;8.57;;;5.10;;
49101;SDS011;34913;47.520;19.186;2023-02-22T02:53:08;10.10;;;5.27;;
49101;SDS011;34913;47.520;19.186;2023-02-22T02:55:35;7.57;;;4.80;;
49101;SDS011;34913;47.520;19.186;2023-02-22T02:58:04;7.18;;;4.72;;
49101;SDS011;34913;47.520;19.186;2023-02-22T03:00:32;5.55;;;4.50;;
49101;SDS011;34913;47.520;19.186;2023-02-22T03:03:08;6.85;;;4.80;;
49101;SDS011;34913;47.520;19.186;2023-02-22T03:08:59;5.43;;;4.70;;
49101;SDS011;34913;47.520;19.186;2023-02-22T03:11:34;6.97;;;4.80;;
49101;SDS011;34913;47.520;19.186;2023-02-22T03:14:22;6.82;;;4.72;;
49101;SDS011;34913;47.520;19.186;2023-02-22T03:17:03;7.43;;;4.60;;
49101;SDS011;34913;47.520;19.186;2023-02-22T03:22:09;6.82;;;5.25;;
49101;SDS011;34913;47.520;19.186;2023-02-22T03:24:49;8.45;;;5.28;;
49101;SDS011;34913;47.520;19.186;2023-02-22T03:27:56;8.32;;;5.00;;
49101;SDS011;34913;47.520;19.186;2023-02-22T03:33:09;6.70;;;4.93;;
49101;SDS011;34913;47.520;19.186;2023-02-22T03:35:41;7.72;;;4.90;;
49101;SDS011;34913;47.520;19.186;2023-02-22T03:38:12;8.85;;;4.90;;
49101;SDS011;34913;47.520;19.186;2023-02-22T03:40:44;6.32;;;4.70;;
49101;SDS011;34913;47.520;19.186;2023-02-22T03:43:14;6.60;;;4.32;;
49101;SDS011;34913;47.520;19.186;2023-02-22T03:45:44;7.40;;;4.88;;
49101;SDS011;34913;47.520;19.186;2023-02-22T03:51:15;6.85;;;4.90;;
49101;SDS011;34913;47.520;19.186;2023-02-22T03:53:41;7.40;;;4.80;;
49101;SDS011;34913;47.520;19.186;2023-02-22T03:56:17;9.05;;;4.82;;
49101;SDS011;34913;47.520;19.186;2023-02-22T03:58:47;6.88;;;4.85;;
49101;SDS011;34913;47.520;19.186;2023-02-22T04:01:14;6.60;;;4.55;;
49101;SDS011;34913;47.520;19.186;2023-02-22T04:03:40;7.22;;;4.60;;
49101;SDS011;34913;47.520;19.186;2023-02-22T04:06:06;7.38;;;4.80;;
49101;SDS011;34913;47.520;19.186;2023-02-22T04:08:32;9.48;;;5.75;;
49101;SDS011;34913;47.520;19.186;2023-02-22T04:10:58;9.10;;;5.53;;
49101;SDS011;34913;47.520;19.186;2023-02-22T04:13:25;9.10;;;5.75;;
49101;SDS011;34913;47.520;19.186;2023-02-22T04:15:51;8.90;;;5.80;;
49101;SDS011;34913;47.520;19.186;2023-02-22T04:18:17;9.10;;;5.95;;
49101;SDS011;34913;47.520;19.186;2023-02-22T04:20:42;9.63;;;6.40;;
49101;SDS011;34913;47.520;19.186;2023-02-22T04:23:08;11.00;;;6.53;;
49101;SDS011;34913;47.520;19.186;2023-02-22T04:25:34;9.38;;;6.22;;
49101;SDS011;34913;47.520;19.186;2023-02-22T04:28:01;9.27;;;5.82;;
49101;SDS011;34913;47.520;19.186;2023-02-22T04:30:26;9.68;;;6.68;;
49101;SDS011;34913;47.520;19.186;2023-02-22T04:32:54;8.85;;;6.32;;
49101;SDS011;34913;47.520;19.186;2023-02-22T04:35:20;10.40;;;6.20;;
49101;SDS011;34913;47.520;19.186;2023-02-22T04:37:46;9.27;;;6.30;;
49101;SDS011;34913;47.520;19.186;2023-02-22T04:40:12;9.00;;;6.30;;
49101;SDS011;34913;47.520;19.186;2023-02-22T04:42:37;9.65;;;6.25;;
49101;SDS011;34913;47.520;19.186;2023-02-22T04:45:04;10.77;;;6.72;;
49101;SDS011;34913;47.520;19.186;2023-02-22T04:47:32;10.38;;;6.60;;
49101;SDS011;34913;47.520;19.186;2023-02-22T04:49:58;9.68;;;6.28;;
49101;SDS011;34913;47.520;19.186;2023-02-22T04:52:24;9.35;;;6.90;;
49101;SDS011;34913;47.520;19.186;2023-02-22T04:54:50;9.75;;;6.60;;
49101;SDS011;34913;47.520;19.186;2023-02-22T04:57:16;11.30;;;7.00;;
49101;SDS011;34913;47.520;19.186;2023-02-22T04:59:42;12.05;;;7.28;;
49101;SDS011;34913;47.520;19.186;2023-02-22T05:02:07;11.98;;;7.30;;
49101;SDS011;34913;47.520;19.186;2023-02-22T05:04:33;10.15;;;6.85;;
49101;SDS011;34913;47.520;19.186;2023-02-22T05:06:58;9.82;;;7.05;;
49101;SDS011;34913;47.520;19.186;2023-02-22T05:09:24;12.73;;;7.28;;
49101;SDS011;34913;47.520;19.186;2023-02-22T05:11:49;9.82;;;7.22;;
49101;SDS011;34913;47.520;19.186;2023-02-22T05:14:14;17.63;;;9.18;;
49101;SDS011;34913;47.520;19.186;2023-02-22T05:16:40;13.52;;;8.93;;
49101;SDS011;34913;47.520;19.186;2023-02-22T05:19:05;14.90;;;9.20;;
49101;SDS011;34913;47.520;19.186;2023-02-22T05:21:32;25.33;;;12.13;;
49101;SDS011;34913;47.520;19.186;2023-02-22T05:23:57;15.48;;;9.65;;
49101;SDS011;34913;47.520;19.186;2023-02-22T05:26:23;12.75;;;8.35;;
49101;SDS011;34913;47.520;19.186;2023-02-22T05:28:48;15.23;;;8.52;;
49101;SDS011;34913;47.520;19.186;2023-02-22T05:31:14;12.57;;;7.68;;
49101;SDS011;34913;47.520;19.186;2023-02-22T05:33:39;10.05;;;7.47;;
49101;SDS011;34913;47.520;19.186;2023-02-22T05:36:05;13.55;;;7.93;;
49101;SDS011;34913;47.520;19.186;2023-02-22T05:38:32;12.30;;;8.00;;
49101;SDS011;34913;47.520;19.186;2023-02-22T05:40:58;11.13;;;7.35;;
49101;SDS011;34913;47.520;19.186;2023-02-22T05:43:24;13.20;;;7.65;;
49101;SDS011;34913;47.520;19.186;2023-02-22T05:45:50;14.52;;;7.30;;
49101;SDS011;34913;47.520;19.186;2023-02-22T05:48:15;11.30;;;7.10;;
49101;SDS011;34913;47.520;19.186;2023-02-22T05:50:40;13.52;;;7.15;;
49101;SDS011;34913;47.520;19.186;2023-02-22T05:53:06;14.57;;;7.57;;
49101;SDS011;34913;47.520;19.186;2023-02-22T05:55:31;11.90;;;7.13;;
49101;SDS011;34913;47.520;19.186;2023-02-22T05:57:57;11.93;;;7.32;;
49101;SDS011;34913;47.520;19.186;2023-02-22T06:00:24;12.63;;;7.03;;
49101;SDS011;34913;47.520;19.186;2023-02-22T06:03:02;12.50;;;7.65;;
49101;SDS011;34913;47.520;19.186;2023-02-22T06:05:29;11.98;;;7.68;;
49101;SDS011;34913;47.520;19.186;2023-02-22T06:07:55;10.88;;;7.15;;
49101;SDS011;34913;47.520;19.186;2023-02-22T06:10:21;11.45;;;6.95;;
49101;SDS011;34913;47.520;19.186;2023-02-22T06:12:47;12.50;;;7.13;;
49101;SDS011;34913;47.520;19.186;2023-02-22T06:15:14;13.63;;;7.53;;
49101;SDS011;34913;47.520;19.186;2023-02-22T06:17:40;14.02;;;7.50;;
49101;SDS011;34913;47.520;19.186;2023-02-22T06:20:06;13.77;;;7.88;;
49101;SDS011;34913;47.520;19.186;2023-02-22T06:22:36;11.27;;;8.07;;
49101;SDS011;34913;47.520;19.186;2023-02-22T06:25:03;11.73;;;7.55;;
49101;SDS011;34913;47.520;19.186;2023-02-22T06:27:30;14.40;;;8.50;;
49101;SDS011;34913;47.520;19.186;2023-02-22T06:29:56;16.52;;;8.05;;
49101;SDS011;34913;47.520;19.186;2023-02-22T06:32:21;13.38;;;7.53;;
49101;SDS011;34913;47.520;19.186;2023-02-22T06:34:47;14.18;;;8.32;;
49101;SDS011;34913;47.520;19.186;2023-02-22T06:37:12;15.77;;;8.48;;
49101;SDS011;34913;47.520;19.186;2023-02-22T06:39:38;13.32;;;8.27;;
49101;SDS011;34913;47.520;19.186;2023-02-22T06:42:03;13.10;;;8.10;;
49101;SDS011;34913;47.520;19.186;2023-02-22T06:44:29;14.75;;;8.20;;
49101;SDS011;34913;47.520;19.186;2023-02-22T06:46:54;14.70;;;8.60;;
49101;SDS011;34913;47.520;19.186;2023-02-22T06:49:20;14.07;;;8.60;;
49101;SDS011;34913;47.520;19.186;2023-02-22T06:51:45;14.13;;;8.50;;
49101;SDS011;34913;47.520;19.186;2023-02-22T06:54:11;15.98;;;9.32;;
49101;SDS011;34913;47.520;19.186;2023-02-22T06:56:37;16.65;;;9.18;;
49101;SDS011;34913;47.520;19.186;2023-02-22T06:59:02;13.85;;;10.23;;
49101;SDS011;34913;47.520;19.186;2023-02-22T07:01:28;14.63;;;9.20;;
49101;SDS011;34913;47.520;19.186;2023-02-22T07:03:54;12.20;;;8.77;;
49101;SDS011;34913;47.520;19.186;2023-02-22T07:06:20;15.60;;;10.10;;
49101;SDS011;34913;47.520;19.186;2023-02-22T07:08:45;15.25;;;9.13;;
49101;SDS011;34913;47.520;19.186;2023-02-22T07:11:10;12.90;;;8.65;;
49101;SDS011;34913;47.520;19.186;2023-02-22T07:13:36;11.70;;;8.18;;
49101;SDS011;34913;47.520;19.186;2023-02-22T07:16:01;11.75;;;8.15;;
49101;SDS011;34913;47.520;19.186;2023-02-22T07:18:27;12.50;;;7.93;;
49101;SDS011;34913;47.520;19.186;2023-02-22T07:20:52;10.60;;;7.90;;
49101;SDS011;34913;47.520;19.186;2023-02-22T07:23:18;18.55;;;9.75;;
49101;SDS011;34913;47.520;19.186;2023-02-22T07:25:44;14.73;;;9.05;;
49101;SDS011;34913;47.520;19.186;2023-02-22T07:28:10;10.98;;;8.48;;
49101;SDS011;34913;47.520;19.186;2023-02-22T07:30:36;11.77;;;8.13;;
49101;SDS011;34913;47.520;19.186;2023-02-22T07:33:06;12.35;;;8.27;;
49101;SDS011;34913;47.520;19.186;2023-02-22T07:35:46;11.67;;;8.07;;
49101;SDS011;34913;47.520;19.186;2023-02-22T07:38:14;12.60;;;8.60;;
49101;SDS011;34913;47.520;19.186;2023-02-22T07:40:40;15.90;;;8.18;;
49101;SDS011;34913;47.520;19.186;2023-02-22T07:45:38;9.60;;;6.97;;
49101;SDS011;34913;47.520;19.186;2023-02-22T07:48:04;9.65;;;7.07;;
49101;SDS011;34913;47.520;19.186;2023-02-22T07:50:31;12.05;;;7.60;;
49101;SDS011;34913;47.520;19.186;2023-02-22T07:52:59;12.73;;;6.88;;
49101;SDS011;34913;47.520;19.186;2023-02-22T07:55:27;10.60;;;6.88;;
49101;SDS011;34913;47.520;19.186;2023-02-22T07:57:54;10.75;;;6.80;;
49101;SDS011;34913;47.520;19.186;2023-02-22T08:00:25;9.85;;;7.72;;
49101;SDS011;34913;47.520;19.186;2023-02-22T08:02:56;8.27;;;7.03;;
49101;SDS011;34913;47.520;19.186;2023-02-22T08:05:24;11.80;;;8.00;;
49101;SDS011;34913;47.520;19.186;2023-02-22T08:07:55;11.88;;;7.50;;
49101;SDS011;34913;47.520;19.186;2023-02-22T08:10:21;10.13;;;6.97;;
49101;SDS011;34913;47.520;19.186;2023-02-22T08:12:48;11.00;;;7.07;;
49101;SDS011;34913;47.520;19.186;2023-02-22T08:15:15;12.57;;;7.32;;
49101;SDS011;34913;47.520;19.186;2023-02-22T08:17:45;14.10;;;7.78;;
49101;SDS011;34913;47.520;19.186;2023-02-22T08:20:11;10.13;;;7.20;;
49101;SDS011;34913;47.520;19.186;2023-02-22T08:22:37;10.60;;;7.60;;
49101;SDS011;34913;47.520;19.186;2023-02-22T08:25:02;9.18;;;6.30;;
49101;SDS011;34913;47.520;19.186;2023-02-22T08:27:30;8.23;;;6.53;;
49101;SDS011;34913;47.520;19.186;2023-02-22T08:29:55;12.15;;;5.72;;
49101;SDS011;34913;47.520;19.186;2023-02-22T08:32:21;6.95;;;5.45;;
49101;SDS011;34913;47.520;19.186;2023-02-22T08:34:48;6.70;;;5.50;;
49101;SDS011;34913;47.520;19.186;2023-02-22T08:37:14;9.40;;;5.78;;
49101;SDS011;34913;47.520;19.186;2023-02-22T08:39:40;7.07;;;5.90;;
49101;SDS011;34913;47.520;19.186;2023-02-22T08:42:06;6.18;;;4.90;;
49101;SDS011;34913;47.520;19.186;2023-02-22T08:44:38;6.85;;;4.95;;
49101;SDS011;34913;47.520;19.186;2023-02-22T08:47:04;5.93;;;4.82;;
49101;SDS011;34913;47.520;19.186;2023-02-22T08:49:30;7.50;;;5.75;;
49101;SDS011;34913;47.520;19.186;2023-02-22T08:51:56;9.70;;;7.18;;
49101;SDS011;34913;47.520;19.186;2023-02-22T08:54:22;9.77;;;6.95;;
49101;SDS011;34913;47.520;19.186;2023-02-22T08:56:48;8.63;;;6.90;;
49101;SDS011;34913;47.520;19.186;2023-02-22T08:59:14;8.60;;;6.93;;
49101;SDS011;34913;47.520;19.186;2023-02-22T09:01:40;10.13;;;7.60;;
49101;SDS011;34913;47.520;19.186;2023-02-22T09:04:05;10.65;;;7.70;;
49101;SDS011;34913;47.520;19.186;2023-02-22T09:06:31;12.20;;;7.18;;
49101;SDS011;34913;47.520;19.186;2023-02-22T09:08:56;11.32;;;7.53;;
49101;SDS011;34913;47.520;19.186;2023-02-22T09:11:22;10.63;;;7.20;;
49101;SDS011;34913;47.520;19.186;2023-02-22T09:13:47;11.38;;;7.18;;
49101;SDS011;34913;47.520;19.186;2023-02-22T09:16:13;12.30;;;7.28;;
49101;SDS011;34913;47.520;19.186;2023-02-22T09:18:38;10.05;;;7.20;;
49101;SDS011;34913;47.520;19.186;2023-02-22T09:21:04;10.82;;;7.30;;
49101;SDS011;34913;47.520;19.186;2023-02-22T09:23:29;8.82;;;6.53;;
49101;SDS011;34913;47.520;19.186;2023-02-22T09:25:55;8.88;;;6.70;;
49101;SDS011;34913;47.520;19.186;2023-02-22T09:28:20;11.65;;;7.40;;
49101;SDS011;34913;47.520;19.186;2023-02-22T09:30:46;9.52;;;6.60;;
49101;SDS011;34913;47.520;19.186;2023-02-22T09:33:15;7.95;;;6.50;;
49101;SDS011;34913;47.520;19.186;2023-02-22T09:35:43;8.05;;;6.47;;
49101;SDS011;34913;47.520;19.186;2023-02-22T09:38:17;9.00;;;6.90;;
49101;SDS011;34913;47.520;19.186;2023-02-22T09:40:48;10.63;;;6.80;;
49101;SDS011;34913;47.520;19.186;2023-02-22T09:51:25;7.55;;;5.93;;
49101;SDS011;34913;47.520;19.186;2023-02-22T09:53:54;8.05;;;6.25;;
49101;SDS011;34913;47.520;19.186;2023-02-22T09:56:23;8.93;;;6.85;;
49101;SDS011;34913;47.520;19.186;2023-02-22T09:58:54;7.35;;;6.03;;
49101;SDS011;34913;47.520;19.186;2023-02-22T10:01:28;8.05;;;6.35;;
49101;SDS011;34913;47.520;19.186;2023-02-22T10:04:10;9.88;;;6.70;;
49101;SDS011;34913;47.520;19.186;2023-02-22T10:09:50;9.23;;;6.88;;
49101;SDS011;34913;47.520;19.186;2023-02-22T10:12:32;10.65;;;7.03;;
49101;SDS011;34913;47.520;19.186;2023-02-22T10:24:07;8.77;;;6.45;;
49101;SDS011;34913;47.520;19.186;2023-02-22T10:26:19;8.98;;;6.93;;
49101;SDS011;34913;47.520;19.186;2023-02-22T10:29:03;8.23;;;6.68;;
49101;SDS011;34913;47.520;19.186;2023-02-22T10:31:39;8.40;;;6.47;;
49101;SDS011;34913;47.520;19.186;2023-02-22T10:34:15;7.20;;;5.90;;
49101;SDS011;34913;47.520;19.186;2023-02-22T10:36:45;7.43;;;6.20;;
49101;SDS011;34913;47.520;19.186;2023-02-22T10:39:32;6.78;;;5.68;;
49101;SDS011;34913;47.520;19.186;2023-02-22T10:42:02;8.98;;;5.88;;
49101;SDS011;34913;47.520;19.186;2023-02-22T10:44:39;7.78;;;6.18;;
49101;SDS011;34913;47.520;19.186;2023-02-22T10:47:06;9.13;;;5.97;;
49101;SDS011;34913;47.520;19.186;2023-02-22T10:49:35;7.40;;;5.72;;
49101;SDS011;34913;47.520;19.186;2023-02-22T10:52:05;6.30;;;5.20;;
49101;SDS011;34913;47.520;19.186;2023-02-22T10:54:39;7.30;;;5.78;;
49101;SDS011;34913;47.520;19.186;2023-02-22T10:57:09;7.32;;;5.63;;
49101;SDS011;34913;47.520;19.186;2023-02-22T10:59:37;6.78;;;5.53;;
49101;SDS011;34913;47.520;19.186;2023-02-22T11:02:47;7.10;;;6.00;;
49101;SDS011;34913;47.520;19.186;2023-02-22T11:04:57;7.65;;;5.45;;
49101;SDS011;34913;47.520;19.186;2023-02-22T11:07:25;7.85;;;6.00;;
49101;SDS011;34913;47.520;19.186;2023-02-22T11:10:00;8.88;;;5.53;;
49101;SDS011;34913;47.520;19.186;2023-02-22T11:17:49;6.40;;;5.65;;
49101;SDS011;34913;47.520;19.186;2023-02-22T11:20:20;9.13;;;5.60;;
49101;SDS011;34913;47.520;19.186;2023-02-22T11:22:54;9.23;;;5.80;;
49101;SDS011;34913;47.520;19.186;2023-02-22T11:25:32;7.03;;;5.72;;
49101;SDS011;34913;47.520;19.186;2023-02-22T11:28:08;6.63;;;5.65;;
49101;SDS011;34913;47.520;19.186;2023-02-22T11:30:38;6.28;;;5.07;;
49101;SDS011;34913;47.520;19.186;2023-02-22T11:33:17;7.47;;;5.35;;
49101;SDS011;34913;47.520;19.186;2023-02-22T11:43:43;10.70;;;6.63;;
49101;SDS011;34913;47.520;19.186;2023-02-22T11:46:18;7.18;;;5.70;;
49101;SDS011;34913;47.520;19.186;2023-02-22T11:48:54;8.07;;;5.60;;
49101;SDS011;34913;47.520;19.186;2023-02-22T11:51:31;8.57;;;6.47;;
49101;SDS011;34913;47.520;19.186;2023-02-22T12:02:56;7.03;;;5.83;;
49101;SDS011;34913;47.520;19.186;2023-02-22T12:22:08;12.40;;;7.10;;
49101;SDS011;34913;47.520;19.186;2023-02-22T12:24:40;10.07;;;6.57;;
49101;SDS011;34913;47.520;19.186;2023-02-22T12:27:30;8.05;;;6.65;;
49101;SDS011;34913;47.520;19.186;2023-02-22T12:32:44;11.38;;;7.20;;
49101;SDS011;34913;47.520;19.186;2023-02-22T12:35:20;10.25;;;7.13;;
49101;SDS011;34913;47.520;19.186;2023-02-22T12:38:08;8.43;;;6.47;;
49101;SDS011;34913;47.520;19.186;2023-02-22T12:45:51;9.93;;;7.15;;
49101;SDS011;34913;47.520;19.186;2023-02-22T12:48:33;11.13;;;7.13;;
49101;SDS011;34913;47.520;19.186;2023-02-22T12:51:27;8.50;;;6.40;;
49101;SDS011;34913;47.520;19.186;2023-02-22T12:54:07;8.88;;;6.72;;
49101;SDS011;34913;47.520;19.186;2023-02-22T12:56:54;9.55;;;6.90;;
49101;SDS011;34913;47.520;19.186;2023-02-22T12:59:32;11.20;;;6.63;;
49101;SDS011;34913;47.520;19.186;2023-02-22T13:02:08;10.20;;;7.35;;
49101;SDS011;34913;47.520;19.186;2023-02-22T13:04:44;7.78;;;6.75;;
49101;SDS011;34913;47.520;19.186;2023-02-22T13:07:24;9.15;;;6.85;;
49101;SDS011;34913;47.520;19.186;2023-02-22T13:09:55;8.95;;;7.03;;
49101;SDS011;34913;47.520;19.186;2023-02-22T13:12:30;9.40;;;7.00;;
49101;SDS011;34913;47.520;19.186;2023-02-22T13:15:13;9.05;;;6.65;;
49101;SDS011;34913;47.520;19.186;2023-02-22T13:21:16;9.35;;;6.75;;
49101;SDS011;34913;47.520;19.186;2023-02-22T13:23:42;9.93;;;6.75;;
49101;SDS011;34913;47.520;19.186;2023-02-22T13:26:15;9.18;;;7.03;;
49101;SDS011;34913;47.520;19.186;2023-02-22T13:29:07;9.57;;;7.47;;
49101;SDS011;34913;47.520;19.186;2023-02-22T13:31:44;12.82;;;7.43;;
49101;SDS011;34913;47.520;19.186;2023-02-22T13:35:09;13.07;;;7.82;;
49101;SDS011;34913;47.520;19.186;2023-02-22T13:53:52;10.23;;;7.40;;
49101;SDS011;34913;47.520;19.186;2023-02-22T13:56:24;9.80;;;7.50;;
49101;SDS011;34913;47.520;19.186;2023-02-22T14:06:59;10.60;;;7.88;;
49101;SDS011;34913;47.520;19.186;2023-02-22T14:17:38;15.27;;;8.52;;
49101;SDS011;34913;47.520;19.186;2023-02-22T14:22:43;10.80;;;8.32;;
49101;SDS011;34913;47.520;19.186;2023-02-22T14:25:33;13.98;;;9.00;;
49101;SDS011;34913;47.520;19.186;2023-02-22T14:28:07;12.32;;;8.48;;
49101;SDS011;34913;47.520;19.186;2023-02-22T14:31:04;11.10;;;8.82;;
49101;SDS011;34913;47.520;19.186;2023-02-22T14:36:31;10.35;;;8.77;;
49101;SDS011;34913;47.520;19.186;2023-02-22T14:44:31;14.80;;;9.10;;
49101;SDS011;34913;47.520;19.186;2023-02-22T14:47:02;11.32;;;9.18;;
49101;SDS011;34913;47.520;19.186;2023-02-22T14:49:31;13.98;;;9.77;;
49101;SDS011;34913;47.520;19.186;2023-02-22T14:52:01;11.65;;;8.80;;
49101;SDS011;34913;47.520;19.186;2023-02-22T14:54:35;11.45;;;9.07;;
49101;SDS011;34913;47.520;19.186;2023-02-22T15:02:23;10.68;;;8.38;;
49101;SDS011;34913;47.520;19.186;2023-02-22T15:04:50;11.52;;;8.63;;
49101;SDS011;34913;47.520;19.186;2023-02-22T15:07:27;13.35;;;9.32;;
49101;SDS011;34913;47.520;19.186;2023-02-22T15:12:50;12.98;;;8.90;;
49101;SDS011;34913;47.520;19.186;2023-02-22T15:15:34;14.80;;;8.77;;
49101;SDS011;34913;47.520;19.186;2023-02-22T15:20:57;12.23;;;8.73;;
49101;SDS011;34913;47.520;19.186;2023-02-22T15:23:28;11.15;;;8.30;;
49101;SDS011;34913;47.520;19.186;2023-02-22T15:26:05;12.68;;;8.70;;
49101;SDS011;34913;47.520;19.186;2023-02-22T15:28:32;13.98;;;8.25;;
49101;SDS011;34913;47.520;19.186;2023-02-22T15:33:51;11.57;;;8.18;;
49101;SDS011;34913;47.520;19.186;2023-02-22T15:36:17;14.30;;;8.80;;
49101;SDS011;34913;47.520;19.186;2023-02-22T15:38:51;14.00;;;9.07;;
49101;SDS011;34913;47.520;19.186;2023-02-22T15:41:29;11.38;;;8.98;;
49101;SDS011;34913;47.520;19.186;2023-02-22T15:43:57;11.63;;;9.02;;
49101;SDS011;34913;47.520;19.186;2023-02-22T15:46:23;11.60;;;8.45;;
49101;SDS011;34913;47.520;19.186;2023-02-22T15:51:43;12.80;;;9.20;;
49101;SDS011;34913;47.520;19.186;2023-02-22T15:54:13;14.07;;;9.57;;
49101;SDS011;34913;47.520;19.186;2023-02-22T15:56:40;12.52;;;9.32;;
49101;SDS011;34913;47.520;19.186;2023-02-22T15:59:14;13.82;;;9.93;;
49101;SDS011;34913;47.520;19.186;2023-02-22T16:01:47;14.90;;;9.82;;
49101;SDS011;34913;47.520;19.186;2023-02-22T16:04:19;16.20;;;10.18;;
49101;SDS011;34913;47.520;19.186;2023-02-22T16:06:46;14.50;;;10.43;;
49101;SDS011;34913;47.520;19.186;2023-02-22T16:09:16;13.65;;;10.38;;
49101;SDS011;34913;47.520;19.186;2023-02-22T16:11:49;13.70;;;9.88;;
49101;SDS011;34913;47.520;19.186;2023-02-22T16:14:38;16.92;;;10.73;;
49101;SDS011;34913;47.520;19.186;2023-02-22T16:19:55;22.08;;;14.02;;
49101;SDS011;34913;47.520;19.186;2023-02-22T16:28:00;20.23;;;13.40;;
49101;SDS011;34913;47.520;19.186;2023-02-22T16:33:09;18.20;;;12.88;;
49101;SDS011;34913;47.520;19.186;2023-02-22T16:35:40;22.95;;;15.88;;
49101;SDS011;34913;47.520;19.186;2023-02-22T16:38:15;20.23;;;13.65;;
49101;SDS011;34913;47.520;19.186;2023-02-22T16:41:00;18.83;;;13.13;;
49101;SDS011;34913;47.520;19.186;2023-02-22T16:43:29;19.25;;;12.95;;
49101;SDS011;34913;47.520;19.186;2023-02-22T16:45:56;19.70;;;12.93;;
49101;SDS011;34913;47.520;19.186;2023-02-22T16:48:24;21.45;;;12.68;;
49101;SDS011;34913;47.520;19.186;2023-02-22T16:50:52;16.05;;;11.95;;
49101;SDS011;34913;47.520;19.186;2023-02-22T16:53:20;20.42;;;12.55;;
49101;SDS011;34913;47.520;19.186;2023-02-22T16:55:48;18.40;;;12.25;;
49101;SDS011;34913;47.520;19.186;2023-02-22T16:58:21;19.13;;;12.55;;
49101;SDS011;34913;47.520;19.186;2023-02-22T17:00:47;17.67;;;12.20;;
49101;SDS011;34913;47.520;19.186;2023-02-22T17:03:14;18.08;;;11.82;;
49101;SDS011;34913;47.520;19.186;2023-02-22T17:05:41;23.13;;;12.23;;
49101;SDS011;34913;47.520;19.186;2023-02-22T17:08:07;16.95;;;10.65;;
49101;SDS011;34913;47.520;19.186;2023-02-22T17:10:32;18.60;;;10.00;;
49101;SDS011;34913;47.520;19.186;2023-02-22T17:12:59;12.75;;;7.78;;
49101;SDS011;34913;47.520;19.186;2023-02-22T17:15:29;14.25;;;7.65;;
49101;SDS011;34913;47.520;19.186;2023-02-22T17:17:56;15.70;;;7.60;;
49101;SDS011;34913;47.520;19.186;2023-02-22T17:20:23;16.77;;;8.18;;